Time;durP1;ratioP1;P1;durP2;ratioP2;P2;SDS_P1;SDS_P2;PMS_P1;PMS_P2;Temp;Humidity;BMP_temperature;BMP_pressure;BME280_temperature;BME280_humidity;BME280_pressure;Samples;Min_cycle;Max_cycle;Signal;HPM_P1;HPM_P2
2022/08/11 00:01:26;;;;;;;151.32;34.60;;;;;;;;;;4215955;28;20032;-62
2022/08/11 00:03:27;;;;;;;129.85;34.45;;;;;;;;;;4216225;28;20028;-62
2022/08/11 00:05:28;;;;;;;141.35;33.30;;;;;;;;;;4216219;28;20446;-62
2022/08/11 00:07:29;;;;;;;144.43;36.22;;;;;;;;;;4216317;28;20081;-62
2022/08/11 00:09:34;;;;;;;151.48;35.30;;;;;;;;;;4215414;28;20036;-62
2022/08/11 00:11:41;;;;;;;142.90;34.55;;;;;;;;;;4215681;28;20028;-62
2022/08/11 00:13:46;;;;;;;118.28;32.97;;;;;;;;;;4216047;28;20086;-63
2022/08/11 00:15:47;;;;;;;123.32;33.28;;;;;;;;;;4216526;28;20020;-62
2022/08/11 00:17:49;;;;;;;118.07;32.95;;;;;;;;;;4216061;28;20036;-62
2022/08/11 00:19:50;;;;;;;123.57;32.67;;;;;;;;;;4214966;28;20082;-63
2022/08/11 00:21:52;;;;;;;118.18;31.02;;;;;;;;;;4216056;28;20032;-62
2022/08/11 00:23:57;;;;;;;124.25;32.33;;;;;;;;;;4215781;28;20047;-63
2022/08/11 00:26:05;;;;;;;112.82;30.90;;;;;;;;;;4215171;28;20032;-63
2022/08/11 00:28:24;;;;;;;104.95;29.70;;;;;;;;;;4214936;28;20085;-62
2022/08/11 00:30:37;;;;;;;112.15;29.77;;;;;;;;;;4214130;28;20097;-63
2022/08/11 00:32:38;;;;;;;106.95;31.17;;;;;;;;;;4215126;28;20479;-62
2022/08/11 00:34:43;;;;;;;105.65;27.73;;;;;;;;;;4215708;28;20103;-62
2022/08/11 00:36:55;;;;;;;92.00;27.52;;;;;;;;;;4215658;28;20077;-62
2022/08/11 00:39:03;;;;;;;98.93;28.02;;;;;;;;;;4215736;28;20430;-62
2022/08/11 00:41:23;;;;;;;101.68;27.83;;;;;;;;;;4215698;28;20058;-62
2022/08/11 00:43:40;;;;;;;95.00;29.92;;;;;;;;;;4215877;28;20512;-63
2022/08/11 00:45:50;;;;;;;94.18;27.45;;;;;;;;;;4215549;28;20552;-63
2022/08/11 00:48:09;;;;;;;95.15;27.65;;;;;;;;;;4215615;28;20031;-63
2022/08/11 00:50:26;;;;;;;96.75;26.13;;;;;;;;;;4215390;28;20466;-63
2022/08/11 00:52:26;;;;;;;78.05;26.10;;;;;;;;;;4215562;28;20032;-63
2022/08/11 00:54:31;;;;;;;81.88;27.13;;;;;;;;;;4214830;28;20037;-62
2022/08/11 00:56:34;;;;;;;75.90;24.33;;;;;;;;;;4215602;28;20040;-62
2022/08/11 00:58:54;;;;;;;75.32;25.25;;;;;;;;;;4215758;28;20023;-62
2022/08/11 01:00:58;;;;;;;77.82;23.50;;;;;;;;;;4215256;28;20036;-63
2022/08/11 01:03:04;;;;;;;75.40;24.10;;;;;;;;;;4215446;28;20082;-62
2022/08/11 01:05:17;;;;;;;81.80;24.40;;;;;;;;;;4215068;28;20040;-64
2022/08/11 01:07:40;;;;;;;82.13;25.05;;;;;;;;;;4215145;28;20082;-62
2022/08/11 01:09:50;;;;;;;73.93;22.70;;;;;;;;;;4210482;28;20045;-62
2022/08/11 01:11:58;;;;;;;65.82;22.58;;;;;;;;;;4214931;28;20081;-62
2022/08/11 01:14:18;;;;;;;67.75;22.55;;;;;;;;;;4215074;28;20112;-63
2022/08/11 01:16:18;;;;;;;60.58;23.17;;;;;;;;;;4214874;28;20085;-61
2022/08/11 01:18:19;;;;;;;96.68;23.45;;;;;;;;;;4214624;28;20418;-61
2022/08/11 01:20:38;;;;;;;77.25;22.88;;;;;;;;;;4215049;28;20036;-61
2022/08/11 01:23:03;;;;;;;64.75;22.13;;;;;;;;;;4213874;28;20044;-62
2022/08/11 01:25:23;;;;;;;72.03;22.73;;;;;;;;;;4214830;28;20032;-63
2022/08/11 01:27:34;;;;;;;61.08;21.17;;;;;;;;;;4212163;28;20193;-62
2022/08/11 01:29:53;;;;;;;61.17;21.17;;;;;;;;;;4213787;28;20036;-62
2022/08/11 01:31:59;;;;;;;57.65;20.63;;;;;;;;;;4214706;28;20073;-62
2022/08/11 01:34:09;;;;;;;67.45;21.30;;;;;;;;;;4215162;28;20453;-62
2022/08/11 01:36:16;;;;;;;62.28;20.33;;;;;;;;;;4214431;28;20429;-64
2022/08/11 01:38:45;;;;;;;69.63;20.80;;;;;;;;;;4214385;28;20152;-63
2022/08/11 01:41:03;;;;;;;57.90;19.88;;;;;;;;;;4202109;28;20036;-64
2022/08/11 01:45:49;;;;;;;50.05;20.73;;;;;;;;;;4215272;28;20066;-63
2022/08/11 01:47:59;;;;;;;61.65;19.23;;;;;;;;;;4203538;28;20036;-64
2022/08/11 01:50:11;;;;;;;62.58;18.73;;;;;;;;;;4214054;28;20052;-64
2022/08/11 01:52:18;;;;;;;60.95;19.58;;;;;;;;;;4214283;28;20117;-63
2022/08/11 01:54:37;;;;;;;60.38;19.20;;;;;;;;;;4213539;28;20090;-63
2022/08/11 01:56:44;;;;;;;66.88;19.27;;;;;;;;;;4214517;28;20036;-63
2022/08/11 01:58:51;;;;;;;57.92;19.88;;;;;;;;;;4214492;28;20475;-64
2022/08/11 02:00:57;;;;;;;58.90;17.38;;;;;;;;;;4213387;28;20028;-64
2022/08/11 02:03:11;;;;;;;56.25;18.17;;;;;;;;;;4214178;28;20036;-63
2022/08/11 02:05:21;;;;;;;53.05;17.10;;;;;;;;;;4214314;28;20422;-63
2022/08/11 02:07:48;;;;;;;49.10;17.45;;;;;;;;;;4214150;28;20024;-63
2022/08/11 02:11:29;;;;;;;67.97;17.20;;;;;;;;;;4214151;28;20043;-63
2022/08/11 02:12:25;;;;;;;58.08;16.60;;;;;;;;;;4214259;28;20414;-63
2022/08/11 02:14:36;;;;;;;55.30;16.75;;;;;;;;;;4213746;28;20138;-64
2022/08/11 02:16:49;;;;;;;52.63;16.77;;;;;;;;;;4213235;28;20032;-63
2022/08/11 02:23:53;;;;;;;44.25;15.68;;;;;;;;;;4199622;28;20089;-63
2022/08/11 02:26:01;;;;;;;42.40;15.15;;;;;;;;;;4213869;28;20032;-63
2022/08/11 02:28:08;;;;;;;46.08;15.27;;;;;;;;;;4213559;28;20089;-63
2022/08/11 02:30:16;;;;;;;37.80;15.60;;;;;;;;;;4213545;28;20044;-63
2022/08/11 02:34:46;;;;;;;38.33;14.05;;;;;;;;;;4214018;28;20105;-63
2022/08/11 02:37:14;;;;;;;38.75;14.68;;;;;;;;;;4213189;28;20036;-63
2022/08/11 02:39:17;;;;;;;36.00;14.50;;;;;;;;;;4171039;28;20039;-63
2022/08/11 02:43:48;;;;;;;41.83;14.65;;;;;;;;;;4214293;28;20073;-64
2022/08/11 02:45:55;;;;;;;40.63;14.02;;;;;;;;;;4214362;28;20432;-63
2022/08/11 02:50:24;;;;;;;36.17;13.98;;;;;;;;;;4215197;28;20085;-64
2022/08/11 02:52:40;;;;;;;30.67;12.63;;;;;;;;;;4214145;28;20024;-64
2022/08/11 02:54:40;;;;;;;35.28;14.25;;;;;;;;;;4214488;28;20089;-63
2022/08/11 02:56:45;;;;;;;35.47;13.48;;;;;;;;;;4213649;28;20032;-64
2022/08/11 03:01:17;;;;;;;28.58;13.35;;;;;;;;;;4162202;28;20115;-64
2022/08/11 03:03:44;;;;;;;36.03;13.50;;;;;;;;;;4184668;28;20071;-64
2022/08/11 03:05:48;;;;;;;29.83;13.00;;;;;;;;;;4196569;28;20371;-64
2022/08/11 03:08:05;;;;;;;34.42;12.55;;;;;;;;;;4197453;28;20420;-64
2022/08/11 03:10:41;;;;;;;29.00;11.95;;;;;;;;;;4196941;28;20553;-63
2022/08/11 03:18:01;;;;;;;28.02;11.68;;;;;;;;;;4201212;28;20078;-63
2022/08/11 03:20:02;;;;;;;24.85;11.10;;;;;;;;;;4198870;28;20036;-63
2022/08/11 03:22:06;;;;;;;24.65;11.50;;;;;;;;;;4216424;28;20092;-64
2022/08/11 03:24:09;;;;;;;28.67;11.90;;;;;;;;;;4216587;28;20750;-63
2022/08/11 03:26:23;;;;;;;28.60;11.90;;;;;;;;;;4216648;28;20040;-63
2022/08/11 03:28:35;;;;;;;27.67;11.90;;;;;;;;;;4216295;28;20097;-63
2022/08/11 03:30:47;;;;;;;29.30;11.43;;;;;;;;;;4216562;28;20101;-64
2022/08/11 03:34:01;;;;;;;25.67;11.05;;;;;;;;;;4216164;28;20077;-63
2022/08/11 03:35:15;;;;;;;26.63;10.77;;;;;;;;;;4216960;28;20028;-63
2022/08/11 03:37:49;;;;;;;24.60;10.60;;;;;;;;;;4216436;28;20449;-64
2022/08/11 03:39:52;;;;;;;23.23;10.95;;;;;;;;;;4204854;28;20054;-63
2022/08/11 03:41:56;;;;;;;22.75;10.13;;;;;;;;;;4216696;28;20057;-64
2022/08/11 03:44:26;;;;;;;26.85;10.70;;;;;;;;;;4216392;28;20089;-63
2022/08/11 03:46:27;;;;;;;24.05;10.65;;;;;;;;;;4202974;28;20130;-63
2022/08/11 03:48:27;;;;;;;16.90;9.82;;;;;;;;;;4216903;28;20027;-63
2022/08/11 03:50:43;;;;;;;17.63;10.15;;;;;;;;;;4215898;28;20101;-64
2022/08/11 03:52:48;;;;;;;19.38;9.52;;;;;;;;;;4216114;28;20039;-63
2022/08/11 03:54:49;;;;;;;22.00;9.05;;;;;;;;;;4216455;28;20029;-63
2022/08/11 03:57:08;;;;;;;19.52;9.57;;;;;;;;;;4215094;28;20079;-63
2022/08/11 03:59:27;;;;;;;18.25;9.90;;;;;;;;;;4216424;28;20085;-62
2022/08/11 04:01:43;;;;;;;22.10;9.70;;;;;;;;;;4216153;28;20138;-62
2022/08/11 04:03:47;;;;;;;20.23;9.25;;;;;;;;;;4216180;28;20117;-63
2022/08/11 04:06:10;;;;;;;21.35;9.65;;;;;;;;;;4215862;28;20085;-63
2022/08/11 04:08:14;;;;;;;16.67;8.35;;;;;;;;;;4195164;28;20441;-63
2022/08/11 04:10:34;;;;;;;22.55;9.15;;;;;;;;;;4215717;28;20145;-62
2022/08/11 04:12:54;;;;;;;21.65;9.98;;;;;;;;;;4215710;28;20105;-62
2022/08/11 04:17:49;;;;;;;16.48;8.57;;;;;;;;;;4216280;28;20381;-62
2022/08/11 04:20:08;;;;;;;18.48;9.30;;;;;;;;;;4190606;28;20037;-62
2022/08/11 04:22:30;;;;;;;19.95;9.02;;;;;;;;;;4212823;28;20463;-63
2022/08/11 04:24:36;;;;;;;14.55;7.88;;;;;;;;;;4214141;28;20035;-62
2022/08/11 04:26:37;;;;;;;19.33;9.20;;;;;;;;;;4215758;28;20477;-62
2022/08/11 04:28:57;;;;;;;13.52;8.30;;;;;;;;;;4215542;28;20089;-63
2022/08/11 04:31:04;;;;;;;16.65;8.15;;;;;;;;;;4214791;28;20040;-63
2022/08/11 04:33:08;;;;;;;15.88;8.73;;;;;;;;;;4215929;28;20098;-62
2022/08/11 04:35:35;;;;;;;15.80;8.52;;;;;;;;;;4215478;28;20032;-63
2022/08/11 04:37:54;;;;;;;15.07;8.07;;;;;;;;;;4198697;28;20040;-63
2022/08/11 04:40:00;;;;;;;15.65;7.95;;;;;;;;;;4215446;28;20036;-63
2022/08/11 04:44:45;;;;;;;14.55;8.40;;;;;;;;;;4216333;28;20376;-62
2022/08/11 04:46:52;;;;;;;13.10;7.78;;;;;;;;;;4215665;28;20077;-62
2022/08/11 05:02:20;;;;;;;13.07;6.80;;;;;;;;;;4209750;28;20044;-62
2022/08/11 05:06:55;;;;;;;13.68;7.53;;;;;;;;;;4216601;28;20099;-63
2022/08/11 05:09:12;;;;;;;16.45;7.82;;;;;;;;;;4215166;28;20032;-62
2022/08/11 05:11:28;;;;;;;12.60;7.35;;;;;;;;;;4214610;28;20036;-62
2022/08/11 05:35:04;;;;;;;12.75;6.63;;;;;;;;;;4214496;28;20024;-63
2022/08/11 05:37:27;;;;;;;10.70;6.65;;;;;;;;;;4214268;28;20036;-62
2022/08/11 05:56:20;;;;;;;10.23;6.32;;;;;;;;;;4215660;28;20024;-62
2022/08/11 05:58:20;;;;;;;14.30;6.35;;;;;;;;;;4203531;28;20093;-62
2022/08/11 06:00:24;;;;;;;10.77;6.18;;;;;;;;;;4214914;28;20119;-63
2022/08/11 06:02:27;;;;;;;10.13;6.10;;;;;;;;;;4214470;28;20468;-62
2022/08/11 06:04:31;;;;;;;12.48;6.32;;;;;;;;;;4214917;28;20032;-62
2022/08/11 06:06:45;;;;;;;10.73;7.30;;;;;;;;;;4214472;28;20104;-63
2022/08/11 06:08:46;;;;;;;9.75;5.82;;;;;;;;;;4215273;28;20102;-63
2022/08/11 06:10:46;;;;;;;11.32;6.18;;;;;;;;;;4214911;28;20040;-62
2022/08/11 06:12:51;;;;;;;12.50;6.45;;;;;;;;;;4214580;28;20526;-62
2022/08/11 06:14:56;;;;;;;11.32;6.35;;;;;;;;;;4214843;28;20028;-62
2022/08/11 06:17:01;;;;;;;8.95;5.80;;;;;;;;;;4214193;28;20464;-62
2022/08/11 06:19:05;;;;;;;8.27;5.60;;;;;;;;;;4214910;28;20479;-62
2022/08/11 06:21:11;;;;;;;9.27;6.47;;;;;;;;;;4214978;28;20044;-62
2022/08/11 06:23:17;;;;;;;8.43;5.82;;;;;;;;;;4215058;28;20081;-62
2022/08/11 06:25:18;;;;;;;9.65;5.70;;;;;;;;;;4214406;28;20139;-62
2022/08/11 06:27:20;;;;;;;7.80;5.15;;;;;;;;;;4215003;28;20031;-62
2022/08/11 06:29:21;;;;;;;8.32;5.15;;;;;;;;;;4214690;28;20032;-62
2022/08/11 06:31:23;;;;;;;9.32;5.85;;;;;;;;;;4211642;28;20360;-62
2022/08/11 06:33:29;;;;;;;7.90;5.70;;;;;;;;;;4212678;28;20417;-62
2022/08/11 06:35:48;;;;;;;7.70;5.28;;;;;;;;;;4197367;28;20032;-62
2022/08/11 06:38:02;;;;;;;7.88;5.45;;;;;;;;;;4210714;28;20044;-63
2022/08/11 06:40:03;;;;;;;7.95;4.82;;;;;;;;;;4213438;28;20048;-62
2022/08/11 06:42:06;;;;;;;7.25;5.38;;;;;;;;;;4214209;28;20036;-62
2022/08/11 06:44:12;;;;;;;7.22;5.55;;;;;;;;;;4214392;28;20077;-63
2022/08/11 06:46:15;;;;;;;8.90;4.82;;;;;;;;;;4214172;28;20093;-62
2022/08/11 06:48:18;;;;;;;8.88;5.88;;;;;;;;;;4214152;28;20028;-63
2022/08/11 06:52:41;;;;;;;7.78;5.18;;;;;;;;;;4217055;28;20024;-62
2022/08/11 06:54:47;;;;;;;9.20;5.18;;;;;;;;;;4214298;28;20440;-62
2022/08/11 07:01:46;;;;;;;7.78;5.60;;;;;;;;;;4214721;28;20368;-62
2022/08/11 07:03:57;;;;;;;6.28;5.13;;;;;;;;;;4213858;28;20101;-62
2022/08/11 07:06:06;;;;;;;8.18;5.38;;;;;;;;;;4213841;28;20032;-62
2022/08/11 07:15:43;;;;;;;7.50;5.25;;;;;;;;;;4198751;28;20479;-62
2022/08/11 07:17:48;;;;;;;6.93;4.57;;;;;;;;;;4207642;28;20032;-62
2022/08/11 07:29:37;;;;;;;7.78;5.07;;;;;;;;;;4213878;28;20028;-63
2022/08/11 07:31:49;;;;;;;8.73;5.38;;;;;;;;;;4213558;28;20480;-62
2022/08/11 07:33:51;;;;;;;7.82;5.55;;;;;;;;;;4212037;28;20024;-63
2022/08/11 07:36:00;;;;;;;9.32;5.15;;;;;;;;;;4213672;28;20086;-62
2022/08/11 07:38:06;;;;;;;9.27;5.32;;;;;;;;;;4213245;28;20105;-62
2022/08/11 07:40:08;;;;;;;6.70;4.85;;;;;;;;;;4212581;28;20040;-62
2022/08/11 07:42:13;;;;;;;7.57;4.93;;;;;;;;;;4211942;28;20032;-62
2022/08/11 07:44:18;;;;;;;5.93;4.70;;;;;;;;;;4213485;28;20085;-62
2022/08/11 07:53:20;;;;;;;8.02;4.72;;;;;;;;;;4214332;28;20448;-62
2022/08/11 07:55:24;;;;;;;7.68;5.43;;;;;;;;;;4211023;28;20085;-62
2022/08/11 08:18:22;;;;;;;7.97;4.63;;;;;;;;;;4200214;28;20032;-62
2022/08/11 08:20:25;;;;;;;6.57;5.35;;;;;;;;;;4213673;28;20032;-62
2022/08/11 08:22:26;;;;;;;5.32;4.22;;;;;;;;;;4216419;28;20046;-63
2022/08/11 08:24:27;;;;;;;8.55;5.18;;;;;;;;;;4215845;28;20085;-62
2022/08/11 08:28:48;;;;;;;6.90;4.60;;;;;;;;;;4200973;28;20028;-62
2022/08/11 08:30:50;;;;;;;8.25;5.18;;;;;;;;;;4217361;28;20035;-62
2022/08/11 08:32:51;;;;;;;6.93;4.70;;;;;;;;;;4216364;28;20085;-62
2022/08/11 08:34:54;;;;;;;5.18;4.03;;;;;;;;;;4215993;28;20032;-62
2022/08/11 08:36:55;;;;;;;6.35;5.25;;;;;;;;;;4217235;28;20036;-62
2022/08/11 08:38:56;;;;;;;8.20;5.20;;;;;;;;;;4215676;28;20115;-62
2022/08/11 08:40:59;;;;;;;6.00;4.78;;;;;;;;;;4214895;28;20040;-62
2022/08/11 08:43:06;;;;;;;4.88;4.30;;;;;;;;;;4215561;28;20093;-63
2022/08/11 08:45:09;;;;;;;6.03;4.18;;;;;;;;;;4215986;28;20109;-62
2022/08/11 08:47:14;;;;;;;6.68;4.68;;;;;;;;;;4215856;28;20029;-62
2022/08/11 08:49:14;;;;;;;;;;;;;;;;;;4216466;28;20097;-62
2022/08/11 08:51:34;;;;;;;5.28;4.18;;;;;;;;;;4214906;28;20283;-62
2022/08/11 08:53:38;;;;;;;7.75;4.55;;;;;;;;;;4215450;28;20156;-63
2022/08/11 08:55:40;;;;;;;5.15;4.38;;;;;;;;;;4215536;28;20069;-62
2022/08/11 08:57:42;;;;;;;6.00;4.38;;;;;;;;;;4215128;28;20121;-62
2022/08/11 08:59:45;;;;;;;5.18;3.80;;;;;;;;;;4215172;28;20094;-62
2022/08/11 09:01:49;;;;;;;4.40;3.70;;;;;;;;;;4214938;28;20193;-62
2022/08/11 09:03:50;;;;;;;6.18;4.22;;;;;;;;;;4214904;28;20105;-62
2022/08/11 09:05:53;;;;;;;5.63;4.22;;;;;;;;;;4215616;28;20035;-62
2022/08/11 09:07:56;;;;;;;6.40;3.97;;;;;;;;;;4215136;28;20036;-62
2022/08/11 09:10:03;;;;;;;4.50;3.70;;;;;;;;;;4213776;28;20462;-62
2022/08/11 09:12:07;;;;;;;6.72;4.20;;;;;;;;;;4215063;28;20040;-62
2022/08/11 09:14:11;;;;;;;6.07;4.47;;;;;;;;;;4215012;28;20532;-62
2022/08/11 09:16:15;;;;;;;6.13;4.30;;;;;;;;;;4215298;28;20101;-62
2022/08/11 09:18:16;;;;;;;5.32;4.00;;;;;;;;;;4214301;28;20058;-62
2022/08/11 09:20:28;;;;;;;7.30;4.30;;;;;;;;;;4214497;28;20479;-62
2022/08/11 09:27:17;;;;;;;5.82;4.32;;;;;;;;;;4215425;28;20032;-62
2022/08/11 09:29:17;;;;;;;5.78;4.25;;;;;;;;;;4214694;28;20035;-62
2022/08/11 09:31:21;;;;;;;5.82;3.97;;;;;;;;;;4214132;28;20509;-62
2022/08/11 09:33:25;;;;;;;6.35;4.03;;;;;;;;;;4214736;28;20039;-62
2022/08/11 09:35:27;;;;;;;5.93;4.10;;;;;;;;;;4214719;28;20092;-62
2022/08/11 09:42:11;;;;;;;5.15;4.13;;;;;;;;;;4215854;28;20024;-62
2022/08/11 09:46:35;;;;;;;5.00;3.80;;;;;;;;;;4215413;28;20027;-62
2022/08/11 09:48:38;;;;;;;3.70;3.40;;;;;;;;;;4214611;28;20097;-62
2022/08/11 09:50:44;;;;;;;5.70;3.80;;;;;;;;;;4214167;28;20441;-62
2022/08/11 09:52:49;;;;;;;5.32;4.18;;;;;;;;;;4214287;28;20048;-62
2022/08/11 09:54:51;;;;;;;5.35;3.83;;;;;;;;;;4213127;28;20036;-62
2022/08/11 09:59:12;;;;;;;5.22;3.53;;;;;;;;;;4214329;28;20376;-62
2022/08/11 10:01:25;;;;;;;6.05;3.53;;;;;;;;;;4213848;28;20063;-62
2022/08/11 10:03:27;;;;;;;4.85;3.38;;;;;;;;;;4214465;28;20101;-62
2022/08/11 10:07:51;;;;;;;3.95;3.47;;;;;;;;;;4214891;28;20024;-62
2022/08/11 10:09:57;;;;;;;3.90;3.35;;;;;;;;;;4213602;28;20027;-62
2022/08/11 10:11:58;;;;;;;5.60;3.03;;;;;;;;;;4205578;28;20032;-62
2022/08/11 10:16:24;;;;;;;6.82;3.40;;;;;;;;;;4213626;28;20036;-62
2022/08/11 10:18:41;;;;;;;10.02;3.20;;;;;;;;;;4214365;28;20089;-62
2022/08/11 10:20:44;;;;;;;4.72;2.97;;;;;;;;;;4213891;28;20519;-62
2022/08/11 10:27:24;;;;;;;4.55;3.70;;;;;;;;;;4215733;28;20028;-62
2022/08/11 10:34:16;;;;;;;7.07;3.90;;;;;;;;;;4214322;28;20028;-62
2022/08/11 10:36:17;;;;;;;5.43;3.20;;;;;;;;;;4214016;28;20032;-62
2022/08/11 10:38:18;;;;;;;6.22;3.42;;;;;;;;;;4213488;28;20101;-62
2022/08/11 10:40:23;;;;;;;7.57;3.38;;;;;;;;;;4213564;28;20498;-62
2022/08/11 10:45:02;;;;;;;4.70;2.97;;;;;;;;;;4146564;28;20042;-62
2022/08/11 10:49:25;;;;;;;7.60;3.65;;;;;;;;;;4214928;28;20471;-62
2022/08/11 10:58:48;;;;;;;4.75;3.42;;;;;;;;;;4214773;28;20036;-62
2022/08/11 11:00:50;;;;;;;5.70;3.28;;;;;;;;;;4213694;28;20032;-62
2022/08/11 11:02:51;;;;;;;6.03;3.05;;;;;;;;;;4213767;28;20097;-62
2022/08/11 11:05:03;;;;;;;4.93;3.20;;;;;;;;;;4213014;28;20032;-62
2022/08/11 11:07:09;;;;;;;5.00;3.28;;;;;;;;;;4214151;28;20028;-62
2022/08/11 11:09:16;;;;;;;4.53;2.80;;;;;;;;;;4213458;28;20036;-62
2022/08/11 11:11:18;;;;;;;5.28;3.20;;;;;;;;;;4213435;28;20105;-62
2022/08/11 11:18:23;;;;;;;7.57;3.33;;;;;;;;;;4214436;28;20012;-62
2022/08/11 11:20:37;;;;;;;4.65;2.95;;;;;;;;;;4212904;28;20483;-62
2022/08/11 11:22:39;;;;;;;3.63;3.20;;;;;;;;;;4213363;28;20040;-62
2022/08/11 11:24:59;;;;;;;5.93;3.40;;;;;;;;;;4213289;28;20040;-62
2022/08/11 11:27:08;;;;;;;4.47;2.85;;;;;;;;;;4213427;28;20360;-62
2022/08/11 11:29:27;;;;;;;5.97;3.10;;;;;;;;;;4213457;28;20032;-62
2022/08/11 11:31:30;;;;;;;4.43;3.00;;;;;;;;;;4213868;28;20036;-62
2022/08/11 11:33:40;;;;;;;3.72;2.92;;;;;;;;;;4215086;28;20066;-62
2022/08/11 11:35:52;;;;;;;3.55;3.13;;;;;;;;;;4216814;28;20050;-62
2022/08/11 11:37:54;;;;;;;5.72;3.30;;;;;;;;;;4216400;28;20097;-62
2022/08/11 11:39:56;;;;;;;3.45;2.58;;;;;;;;;;4216559;28;20066;-62
2022/08/11 11:41:59;;;;;;;3.42;2.90;;;;;;;;;;4216693;28;20426;-63
2022/08/11 11:44:00;;;;;;;4.97;3.00;;;;;;;;;;4216588;28;20032;-62
2022/08/11 11:46:02;;;;;;;3.40;2.45;;;;;;;;;;4217018;28;20437;-62
2022/08/11 11:48:13;;;;;;;3.35;2.80;;;;;;;;;;4216354;28;20043;-62
2022/08/11 11:50:18;;;;;;;3.25;2.75;;;;;;;;;;4216263;28;20024;-62
2022/08/11 11:52:20;;;;;;;4.05;3.08;;;;;;;;;;4216314;28;20048;-62
2022/08/11 11:54:23;;;;;;;3.67;2.88;;;;;;;;;;4216150;28;20036;-62
2022/08/11 11:56:24;;;;;;;3.47;2.72;;;;;;;;;;4215594;28;20093;-62
2022/08/11 12:03:10;;;;;;;3.17;2.88;;;;;;;;;;4216911;28;20020;-62
2022/08/11 12:05:13;;;;;;;3.65;2.80;;;;;;;;;;4216570;28;20467;-62
2022/08/11 12:09:34;;;;;;;3.53;3.05;;;;;;;;;;4200427;28;20040;-62
2022/08/11 12:13:59;;;;;;;4.55;3.10;;;;;;;;;;4214185;28;20028;-63
2022/08/11 12:16:02;;;;;;;3.40;2.80;;;;;;;;;;4216218;28;20073;-63
2022/08/11 12:18:06;;;;;;;3.60;2.80;;;;;;;;;;4215646;28;20074;-63
2022/08/11 12:20:07;;;;;;;2.92;2.50;;;;;;;;;;4215667;28;20093;-64
2022/08/11 12:29:31;;;;;;;3.67;2.95;;;;;;;;;;4181146;28;20049;-63
2022/08/11 12:31:32;;;;;;;3.80;3.20;;;;;;;;;;4201052;28;20051;-63
2022/08/11 12:33:33;;;;;;;4.05;2.60;;;;;;;;;;4213563;28;20361;-62
2022/08/11 12:35:37;;;;;;;5.07;2.85;;;;;;;;;;4213197;28;20056;-62
2022/08/11 12:37:40;;;;;;;4.70;3.60;;;;;;;;;;4212991;28;20544;-63
2022/08/11 12:46:57;;;;;;;4.03;2.65;;;;;;;;;;4147129;28;20025;-63
2022/08/11 12:53:51;;;;;;;4.95;3.00;;;;;;;;;;4200586;28;20032;-63
2022/08/11 12:58:16;;;;;;;4.32;2.65;;;;;;;;;;4200816;28;20040;-63
2022/08/11 13:04:59;;;;;;;5.53;3.05;;;;;;;;;;4213462;28;20028;-63
2022/08/11 13:07:02;;;;;;;6.30;3.15;;;;;;;;;;4212718;28;20040;-63
2022/08/11 13:09:06;;;;;;;7.10;2.88;;;;;;;;;;4214208;28;20445;-62
2022/08/11 13:13:30;;;;;;;6.68;3.28;;;;;;;;;;4214849;28;20036;-63
2022/08/11 13:15:31;;;;;;;7.65;2.78;;;;;;;;;;4210642;28;20032;-61
2022/08/11 13:17:33;;;;;;;4.93;3.00;;;;;;;;;;4215703;28;20036;-63
2022/08/11 13:19:37;;;;;;;4.07;2.78;;;;;;;;;;4213037;28;20036;-62
2022/08/11 13:21:38;;;;;;;3.08;2.78;;;;;;;;;;4215249;28;20093;-62
2022/08/11 13:23:39;;;;;;;5.70;2.90;;;;;;;;;;4214834;28;20032;-62
2022/08/11 13:25:41;;;;;;;4.03;2.90;;;;;;;;;;4214423;28;20437;-62
2022/08/11 13:27:43;;;;;;;7.15;3.38;;;;;;;;;;4213810;28;20086;-62
2022/08/11 13:31:09;;;;;;;8.30;2.80;;;;;;;;;;4213736;28;20073;-62
2022/08/11 13:32:25;;;;;;;9.02;3.08;;;;;;;;;;4209353;28;20105;-62
2022/08/11 13:34:40;;;;;;;5.05;3.05;;;;;;;;;;4213507;28;20077;-62
2022/08/11 13:36:41;;;;;;;7.63;3.60;;;;;;;;;;4214995;28;20089;-62
2022/08/11 13:38:45;;;;;;;4.88;2.78;;;;;;;;;;4214022;28;20505;-62
2022/08/11 13:40:46;;;;;;;5.70;2.80;;;;;;;;;;4205921;28;20544;-62
2022/08/11 13:42:48;;;;;;;6.38;3.17;;;;;;;;;;4213191;28;20493;-61
2022/08/11 13:44:49;;;;;;;8.88;3.05;;;;;;;;;;4211219;28;20032;-62
2022/08/11 13:46:51;;;;;;;4.88;3.05;;;;;;;;;;4213244;28;20039;-62
2022/08/11 13:48:53;;;;;;;8.20;2.85;;;;;;;;;;4213390;28;20432;-62
2022/08/11 13:53:19;;;;;;;3.92;2.85;;;;;;;;;;4201178;28;20031;-61
2022/08/11 13:55:22;;;;;;;13.23;3.05;;;;;;;;;;4213229;28;20081;-62
2022/08/11 13:57:29;;;;;;;10.32;3.63;;;;;;;;;;4212464;28;20077;-62
2022/08/11 13:59:30;;;;;;;18.17;3.78;;;;;;;;;;4212812;28;20032;-62
2022/08/11 14:01:32;;;;;;;15.68;3.45;;;;;;;;;;4213128;28;20040;-62
2022/08/11 14:03:33;;;;;;;16.13;3.53;;;;;;;;;;4213902;28;20024;-62
2022/08/11 14:05:45;;;;;;;17.05;3.50;;;;;;;;;;4213017;28;20044;-61
2022/08/11 14:08:02;;;;;;;20.92;3.35;;;;;;;;;;4213082;28;20090;-62
2022/08/11 14:10:04;;;;;;;16.35;3.70;;;;;;;;;;4213540;28;20085;-61
2022/08/11 14:14:37;;;;;;;20.05;3.55;;;;;;;;;;4213097;28;20031;-61
2022/08/11 14:16:41;;;;;;;11.88;3.00;;;;;;;;;;4214817;28;20028;-61
2022/08/11 14:18:44;;;;;;;15.02;4.15;;;;;;;;;;4213743;28;20031;-61
2022/08/11 14:23:10;;;;;;;12.10;3.13;;;;;;;;;;4214708;28;20023;-63
2022/08/11 14:25:13;;;;;;;12.68;3.38;;;;;;;;;;4213177;28;20040;-63
2022/08/11 14:27:16;;;;;;;10.68;3.75;;;;;;;;;;4212329;28;20073;-62
2022/08/11 14:29:19;;;;;;;10.27;3.20;;;;;;;;;;4213329;28;20036;-63
2022/08/11 14:31:21;;;;;;;14.00;3.10;;;;;;;;;;4212655;28;20040;-63
2022/08/11 14:33:22;;;;;;;10.20;2.85;;;;;;;;;;4212505;28;20036;-63
2022/08/11 14:35:24;;;;;;;7.97;2.88;;;;;;;;;;4212479;28;20081;-63
2022/08/11 14:37:26;;;;;;;8.85;2.88;;;;;;;;;;4213798;28;20032;-63
2022/08/11 14:39:28;;;;;;;8.00;3.25;;;;;;;;;;4211165;28;20093;-63
2022/08/11 14:48:27;;;;;;;8.27;2.85;;;;;;;;;;4215107;28;20020;-62
2022/08/11 14:50:30;;;;;;;8.68;2.92;;;;;;;;;;4212978;28;20146;-62
2022/08/11 14:52:37;;;;;;;8.68;3.53;;;;;;;;;;4205413;28;20480;-62
2022/08/11 14:57:02;;;;;;;11.02;3.28;;;;;;;;;;4206340;28;20028;-62
2022/08/11 14:59:08;;;;;;;11.75;2.85;;;;;;;;;;4214105;28;20468;-62
2022/08/11 15:03:08;;;;;;;16.27;3.30;;;;;;;;;;4212631;28;20073;-62
2022/08/11 15:03:32;;;;;;;14.90;3.20;;;;;;;;;;4211012;28;20097;-62
2022/08/11 15:05:33;;;;;;;15.73;3.75;;;;;;;;;;4213639;28;20040;-62
2022/08/11 15:07:35;;;;;;;18.35;3.53;;;;;;;;;;4214876;28;20081;-63
2022/08/11 15:09:37;;;;;;;16.25;3.75;;;;;;;;;;4216449;28;20475;-62
2022/08/11 15:14:04;;;;;;;23.40;3.97;;;;;;;;;;4201053;28;20028;-62
2022/08/11 15:18:25;;;;;;;17.35;3.78;;;;;;;;;;4201817;28;20032;-62
2022/08/11 15:25:05;;;;;;;14.10;3.60;;;;;;;;;;4217621;28;20348;-62
2022/08/11 15:46:55;;;;;;;4.93;2.78;;;;;;;;;;4215271;28;20028;-62
2022/08/11 15:49:04;;;;;;;12.15;3.17;;;;;;;;;;4215650;28;20036;-62
2022/08/11 15:51:10;;;;;;;11.05;3.35;;;;;;;;;;4213669;28;20032;-61
2022/08/11 15:53:16;;;;;;;8.13;2.90;;;;;;;;;;4216134;28;20085;-62
2022/08/11 15:55:17;;;;;;;14.05;3.30;;;;;;;;;;4215405;28;20040;-62
2022/08/11 16:04:35;;;;;;;11.68;2.95;;;;;;;;;;4216871;28;20032;-61
2022/08/11 16:06:39;;;;;;;4.78;2.65;;;;;;;;;;4216576;28;20032;-62
2022/08/11 16:08:41;;;;;;;7.72;2.95;;;;;;;;;;4200439;28;20041;-61
2022/08/11 16:10:42;;;;;;;5.90;2.92;;;;;;;;;;4198908;28;20049;-63
2022/08/11 16:17:36;;;;;;;5.38;2.83;;;;;;;;;;4218156;28;20036;-62
2022/08/11 16:19:38;;;;;;;10.10;2.80;;;;;;;;;;4215028;28;20073;-62
2022/08/11 16:21:41;;;;;;;4.65;2.72;;;;;;;;;;4215795;28;20070;-62
2022/08/11 16:23:47;;;;;;;7.05;2.53;;;;;;;;;;4215859;28;20044;-62
2022/08/11 16:25:49;;;;;;;4.43;2.55;;;;;;;;;;4216639;28;20509;-62
2022/08/11 16:27:51;;;;;;;7.03;2.92;;;;;;;;;;4216444;28;20097;-61
2022/08/11 16:29:54;;;;;;;4.85;2.50;;;;;;;;;;4215730;28;20040;-62
2022/08/11 16:38:34;;;;;;;8.88;2.72;;;;;;;;;;4215980;28;20032;-62
2022/08/11 16:38:55;;;;;;;6.88;2.20;;;;;;;;;;4216852;28;20052;-62
2022/08/11 16:40:57;;;;;;;5.53;3.22;;;;;;;;;;4214729;28;20032;-62
2022/08/11 16:47:41;;;;;;;8.07;2.75;;;;;;;;;;4216593;28;20032;-62
2022/08/11 16:49:48;;;;;;;5.78;2.63;;;;;;;;;;4215673;28;20036;-62
2022/08/11 16:51:52;;;;;;;4.60;2.20;;;;;;;;;;4214930;28;20044;-62
2022/08/11 16:53:53;;;;;;;5.40;2.50;;;;;;;;;;4215174;28;20520;-62
2022/08/11 16:55:54;;;;;;;4.90;2.40;;;;;;;;;;4215002;28;20073;-62
2022/08/11 17:00:15;;;;;;;4.68;2.05;;;;;;;;;;4216125;28;20032;-62
2022/08/11 17:14:09;;;;;;;4.78;2.10;;;;;;;;;;4232699;28;20020;-62
2022/08/11 17:16:11;;;;;;;5.38;2.00;;;;;;;;;;4227593;28;20089;-62
2022/08/11 17:18:38;;;;;;;4.05;2.10;;;;;;;;;;4215379;28;20093;-62
2022/08/11 17:20:34;;;;;;;2.20;1.92;;;;;;;;;;4215307;28;20032;-62
2022/08/11 17:24:55;;;;;;;4.03;2.10;;;;;;;;;;4214755;28;20036;-62
2022/08/11 17:26:57;;;;;;;2.78;2.03;;;;;;;;;;4215104;28;20455;-62
2022/08/11 17:29:00;;;;;;;4.70;2.55;;;;;;;;;;4215252;28;20365;-62
2022/08/11 17:35:43;;;;;;;4.25;2.55;;;;;;;;;;4224489;28;20028;-61
2022/08/11 17:37:46;;;;;;;3.55;2.38;;;;;;;;;;4214843;28;20055;-62
2022/08/11 17:39:47;;;;;;;3.47;2.45;;;;;;;;;;4213923;28;20032;-62